Time;durP1;ratioP1;P1;durP2;ratioP2;P2;SDS_P1;SDS_P2;PMS_P1;PMS_P2;Temp;Humidity;BMP_temperature;BMP_pressure;BME280_temperature;BME280_humidity;BME280_pressure;Samples;Min_cycle;Max_cycle;Signal;HPM_P1;HPM_P2
2022/01/29 00:02:24;;;;;;;30.03;13.50;;;;;;;;;;5057480;28;20203;-83
2022/01/29 00:04:54;;;;;;;30.33;13.03;;;;;;;;;;5060476;28;20222;-82
2022/01/29 00:07:25;;;;;;;28.13;10.93;;;;;;;;;;5057360;28;20328;-82
2022/01/29 00:10:02;;;;;;;27.80;11.17;;;;;;;;;;5049143;28;20229;-82
2022/01/29 00:12:29;;;;;;;23.50;10.27;;;;;;;;;;5060808;28;20229;-82
2022/01/29 00:14:56;;;;;;;20.47;8.13;;;;;;;;;;5050383;28;20203;-83
2022/01/29 00:17:34;;;;;;;20.90;8.30;;;;;;;;;;5054360;28;20281;-83
2022/01/29 00:20:01;;;;;;;18.73;7.10;;;;;;;;;;5054971;28;20229;-82
2022/01/29 00:22:30;;;;;;;20.83;7.30;;;;;;;;;;5058984;28;20203;-83
2022/01/29 00:24:58;;;;;;;22.10;7.37;;;;;;;;;;5059951;28;20202;-83
2022/01/29 00:27:26;;;;;;;18.47;7.27;;;;;;;;;;5053009;28;20206;-83
2022/01/29 00:29:54;;;;;;;16.67;6.57;;;;;;;;;;5056378;28;20246;-82
2022/01/29 00:32:23;;;;;;;19.80;7.10;;;;;;;;;;5052887;28;20219;-83
2022/01/29 00:34:53;;;;;;;16.17;6.33;;;;;;;;;;5058971;28;20214;-83
2022/01/29 00:37:21;;;;;;;18.07;6.37;;;;;;;;;;5054166;28;20235;-83
2022/01/29 00:39:48;;;;;;;15.77;6.00;;;;;;;;;;5059574;28;20253;-82
2022/01/29 00:42:15;;;;;;;15.77;6.97;;;;;;;;;;5054080;28;20309;-83
2022/01/29 00:44:54;;;;;;;17.33;6.97;;;;;;;;;;5061422;28;20764;-83
2022/01/29 00:47:32;;;;;;;17.07;6.87;;;;;;;;;;5038691;28;20214;-82
2022/01/29 00:50:04;;;;;;;14.07;6.30;;;;;;;;;;5060082;28;20237;-82
2022/01/29 00:52:31;;;;;;;16.50;6.70;;;;;;;;;;5066396;28;20226;-82
2022/01/29 00:54:59;;;;;;;16.73;6.90;;;;;;;;;;5058126;28;20238;-82
2022/01/29 00:57:35;;;;;;;17.63;7.23;;;;;;;;;;5055126;28;20743;-82
2022/01/29 01:00:02;;;;;;;12.90;6.23;;;;;;;;;;5052798;28;20222;-82
2022/01/29 01:02:30;;;;;;;17.17;6.33;;;;;;;;;;5050272;28;20230;-82
2022/01/29 01:04:57;;;;;;;17.80;6.77;;;;;;;;;;5052375;28;20207;-83
2022/01/29 01:07:25;;;;;;;21.80;6.07;;;;;;;;;;5059507;28;20298;-82
2022/01/29 01:09:52;;;;;;;16.43;6.43;;;;;;;;;;5054132;28;20305;-82
2022/01/29 01:12:19;;;;;;;18.00;6.93;;;;;;;;;;5070586;28;20214;-81
2022/01/29 01:14:47;;;;;;;17.27;6.00;;;;;;;;;;5075114;28;20382;-82
2022/01/29 01:17:14;;;;;;;16.90;6.73;;;;;;;;;;5066654;28;20203;-81
2022/01/29 01:19:41;;;;;;;16.67;6.00;;;;;;;;;;5047881;28;20598;-82
2022/01/29 01:22:08;;;;;;;15.93;6.40;;;;;;;;;;5057458;28;20202;-82
2022/01/29 01:24:37;;;;;;;17.43;6.00;;;;;;;;;;5054984;28;20576;-82
2022/01/29 01:27:04;;;;;;;11.73;5.40;;;;;;;;;;5055355;28;20267;-81
2022/01/29 01:29:31;;;;;;;14.70;5.37;;;;;;;;;;5053503;28;20230;-84
2022/01/29 01:31:58;;;;;;;14.77;6.07;;;;;;;;;;5058162;28;20233;-83
2022/01/29 01:34:29;;;;;;;15.70;6.07;;;;;;;;;;5055846;28;20629;-81
2022/01/29 01:37:01;;;;;;;13.67;6.60;;;;;;;;;;5052771;28;20214;-82
2022/01/29 01:39:32;;;;;;;19.23;5.77;;;;;;;;;;5055742;28;20237;-82
2022/01/29 01:42:05;;;;;;;14.20;6.07;;;;;;;;;;5056661;28;20195;-83
2022/01/29 01:44:34;;;;;;;17.87;6.40;;;;;;;;;;5059876;28;20305;-83
2022/01/29 01:47:01;;;;;;;19.80;6.07;;;;;;;;;;5056804;28;20206;-82
2022/01/29 01:49:28;;;;;;;15.37;5.97;;;;;;;;;;5059146;28;20234;-82
2022/01/29 01:51:56;;;;;;;13.10;5.20;;;;;;;;;;5055072;28;20234;-83
2022/01/29 01:54:23;;;;;;;16.07;6.10;;;;;;;;;;5060942;28;20235;-83
2022/01/29 01:56:50;;;;;;;15.57;5.93;;;;;;;;;;5058287;28;20271;-82
2022/01/29 01:59:18;;;;;;;22.57;5.93;;;;;;;;;;5057021;28;20244;-82
2022/01/29 02:01:46;;;;;;;12.93;6.00;;;;;;;;;;5055233;28;20266;-81
2022/01/29 02:04:13;;;;;;;17.43;5.60;;;;;;;;;;5059881;28;20207;-81
2022/01/29 02:06:40;;;;;;;16.43;6.20;;;;;;;;;;5053021;28;20202;-82
2022/01/29 02:09:07;;;;;;;16.30;5.97;;;;;;;;;;5050159;28;20223;-81
2022/01/29 02:11:38;;;;;;;16.83;5.40;;;;;;;;;;5055599;28;20218;-82
2022/01/29 02:14:05;;;;;;;14.57;5.47;;;;;;;;;;5049794;28;20261;-83
2022/01/29 02:16:33;;;;;;;18.20;6.60;;;;;;;;;;5051513;28;20210;-82
2022/01/29 02:19:01;;;;;;;15.03;6.10;;;;;;;;;;5053881;28;20302;-83
2022/01/29 02:21:29;;;;;;;18.90;6.00;;;;;;;;;;5055504;28;20206;-82
2022/01/29 02:23:56;;;;;;;18.80;6.60;;;;;;;;;;5055679;28;20199;-82
2022/01/29 02:26:25;;;;;;;20.40;6.07;;;;;;;;;;5063057;28;20237;-81
2022/01/29 02:28:53;;;;;;;17.17;5.87;;;;;;;;;;5062277;28;20287;-81
2022/01/29 02:31:20;;;;;;;18.17;6.70;;;;;;;;;;5065605;28;20596;-82
2022/01/29 02:33:47;;;;;;;12.77;5.80;;;;;;;;;;5057522;28;20198;-83
2022/01/29 03:24:58;;;;;;;12.83;6.23;;;;;;;;;;5882540;23;20239;-74
2022/01/29 03:27:26;;;;;;;17.17;6.13;;;;;;;;;;4966826;28;20655;-75
2022/01/29 03:29:53;;;;;;;15.70;6.50;;;;;;;;;;4964579;28;20632;-75
2022/01/29 03:32:20;;;;;;;15.73;6.47;;;;;;;;;;4965606;28;20228;-76
2022/01/29 03:34:47;;;;;;;22.43;7.20;;;;;;;;;;4964795;28;20305;-76
2022/01/29 03:37:14;;;;;;;16.00;6.97;;;;;;;;;;4965717;28;20764;-76
2022/01/29 03:39:43;;;;;;;17.87;6.50;;;;;;;;;;4960530;28;20241;-75
2022/01/29 03:42:13;;;;;;;16.53;6.67;;;;;;;;;;4962986;28;20208;-76
2022/01/29 03:44:41;;;;;;;20.73;7.13;;;;;;;;;;4962861;28;20234;-76
2022/01/29 03:47:08;;;;;;;16.83;7.20;;;;;;;;;;4964292;28;20229;-75
2022/01/29 03:49:35;;;;;;;19.17;6.80;;;;;;;;;;4962988;28;20213;-75
2022/01/29 03:52:02;;;;;;;15.97;6.07;;;;;;;;;;4962474;28;20727;-76
2022/01/29 03:54:29;;;;;;;15.67;6.50;;;;;;;;;;4961645;28;20225;-76
2022/01/29 03:56:56;;;;;;;17.47;7.27;;;;;;;;;;4964005;28;20297;-74
2022/01/29 03:59:25;;;;;;;17.23;6.97;;;;;;;;;;4959618;28;20293;-74
2022/01/29 04:01:52;;;;;;;22.10;6.83;;;;;;;;;;4963131;28;20293;-74
2022/01/29 04:04:19;;;;;;;19.43;6.77;;;;;;;;;;4964000;28;20217;-75
2022/01/29 04:06:46;;;;;;;19.87;6.53;;;;;;;;;;4963880;28;20233;-75
2022/01/29 04:09:14;;;;;;;17.60;7.23;;;;;;;;;;4964127;28;20637;-75
2022/01/29 04:11:41;;;;;;;15.87;6.57;;;;;;;;;;4962230;28;20314;-75
2022/01/29 04:14:14;;;;;;;20.20;7.93;;;;;;;;;;4958287;28;20260;-75
2022/01/29 04:16:43;;;;;;;19.27;7.37;;;;;;;;;;4961948;28;20206;-74
2022/01/29 04:19:10;;;;;;;15.93;7.30;;;;;;;;;;4960467;28;20381;-73
2022/01/29 04:21:37;;;;;;;16.87;6.57;;;;;;;;;;4957595;28;20305;-74
2022/01/29 04:24:05;;;;;;;21.30;7.00;;;;;;;;;;4959492;28;20222;-74
2022/01/29 04:26:34;;;;;;;17.23;7.33;;;;;;;;;;4958511;28;20228;-76
2022/01/29 04:29:02;;;;;;;16.67;6.40;;;;;;;;;;4960775;28;20260;-75
2022/01/29 04:31:37;;;;;;;20.17;7.60;;;;;;;;;;4961033;28;20668;-76
2022/01/29 04:34:06;;;;;;;18.50;7.07;;;;;;;;;;4962286;28;20275;-76
2022/01/29 04:36:33;;;;;;;22.43;7.93;;;;;;;;;;4965420;28;20204;-75
2022/01/29 04:39:00;;;;;;;20.03;7.67;;;;;;;;;;4961596;28;20204;-73
2022/01/29 04:41:49;;;;;;;16.43;6.17;;;;;;;;;;4968923;28;20205;-74
2022/01/29 04:44:17;;;;;;;14.77;6.90;;;;;;;;;;4960517;28;20317;-75
2022/01/29 04:46:44;;;;;;;15.17;6.70;;;;;;;;;;4959828;28;20215;-74
2022/01/29 04:49:13;;;;;;;16.90;6.40;;;;;;;;;;4962698;28;20205;-75
2022/01/29 04:51:40;;;;;;;14.60;6.63;;;;;;;;;;4963741;28;20569;-74
2022/01/29 04:54:07;;;;;;;16.07;6.07;;;;;;;;;;4961499;28;20249;-75
2022/01/29 04:56:34;;;;;;;16.40;6.53;;;;;;;;;;4963387;28;20595;-75
2022/01/29 04:59:02;;;;;;;15.50;6.17;;;;;;;;;;4962543;28;20565;-74
2022/01/29 05:01:29;;;;;;;15.73;6.30;;;;;;;;;;4968022;28;20643;-75
2022/01/29 05:03:56;;;;;;;13.93;6.53;;;;;;;;;;4963864;28;20222;-75
2022/01/29 05:06:24;;;;;;;15.83;6.80;;;;;;;;;;4965483;28;20739;-75
2022/01/29 05:08:51;;;;;;;11.67;5.23;;;;;;;;;;4966433;28;20579;-76
2022/01/29 05:11:19;;;;;;;12.40;5.37;;;;;;;;;;4964028;28;20214;-75
2022/01/29 05:13:46;;;;;;;15.37;5.70;;;;;;;;;;4964333;28;20312;-75
2022/01/29 05:27:10;;;;;;;14.13;4.87;;;;;;;;;;4965703;28;20229;-73
2022/01/29 05:29:37;;;;;;;9.53;4.43;;;;;;;;;;4962005;28;20217;-74
2022/01/29 05:32:05;;;;;;;10.67;4.20;;;;;;;;;;4962804;28;20253;-77
2022/01/29 05:34:32;;;;;;;9.43;3.93;;;;;;;;;;4962636;28;20228;-75
2022/01/29 05:37:02;;;;;;;8.00;3.70;;;;;;;;;;4965465;28;20212;-74
2022/01/29 05:39:29;;;;;;;12.40;5.03;;;;;;;;;;4965822;28;20658;-75
2022/01/29 05:41:57;;;;;;;13.70;4.43;;;;;;;;;;4965062;28;20202;-75
2022/01/29 05:44:25;;;;;;;7.53;3.73;;;;;;;;;;4960810;28;20261;-75
2022/01/29 05:46:52;;;;;;;9.53;3.73;;;;;;;;;;4961831;28;20214;-75
2022/01/29 05:49:19;;;;;;;7.40;3.47;;;;;;;;;;4965467;28;20201;-75
2022/01/29 05:51:46;;;;;;;8.87;3.80;;;;;;;;;;4961580;28;20198;-76
2022/01/29 05:54:15;;;;;;;10.53;3.53;;;;;;;;;;4961517;28;20260;-74
2022/01/29 05:56:42;;;;;;;4.57;2.07;;;;;;;;;;4966915;28;20205;-75
2022/01/29 05:59:09;;;;;;;5.57;2.30;;;;;;;;;;4962681;28;20676;-75
2022/01/29 06:01:36;;;;;;;5.63;2.33;;;;;;;;;;4963653;28;21944;-75
2022/01/29 06:04:05;;;;;;;4.50;2.40;;;;;;;;;;4965547;28;20229;-75
2022/01/29 06:06:33;;;;;;;4.43;2.10;;;;;;;;;;4968775;28;20206;-76
2022/01/29 06:09:01;;;;;;;4.13;1.90;;;;;;;;;;4966708;28;20202;-76
2022/01/29 06:11:30;;;;;;;4.50;2.57;;;;;;;;;;4956823;28;20273;-75
2022/01/29 06:13:57;;;;;;;5.33;2.00;;;;;;;;;;4958707;28;20238;-75
2022/01/29 06:16:24;;;;;;;2.40;1.37;;;;;;;;;;4962464;28;20314;-76
2022/01/29 06:18:51;;;;;;;3.50;1.30;;;;;;;;;;4963196;28;20238;-75
2022/01/29 06:21:18;;;;;;;3.60;1.50;;;;;;;;;;4966962;28;20376;-74
2022/01/29 06:23:46;;;;;;;3.40;1.30;;;;;;;;;;4957945;28;20267;-75
2022/01/29 06:26:13;;;;;;;2.13;1.30;;;;;;;;;;4960775;28;20229;-76
2022/01/29 06:28:42;;;;;;;2.63;1.50;;;;;;;;;;4960608;28;20231;-75
2022/01/29 06:31:10;;;;;;;2.07;1.10;;;;;;;;;;4960629;28;20672;-75
2022/01/29 06:33:37;;;;;;;3.67;1.30;;;;;;;;;;4958064;28;20241;-74
2022/01/29 06:36:04;;;;;;;2.57;1.20;;;;;;;;;;4958597;28;20210;-75
2022/01/29 06:38:32;;;;;;;3.77;1.50;;;;;;;;;;4955611;28;20206;-76
2022/01/29 06:40:59;;;;;;;2.57;1.30;;;;;;;;;;4965211;28;20740;-75
2022/01/29 06:43:28;;;;;;;1.53;0.93;;;;;;;;;;4954710;28;20244;-75
2022/01/29 06:45:56;;;;;;;1.33;0.80;;;;;;;;;;4957788;28;20214;-75
2022/01/29 06:48:24;;;;;;;1.57;0.80;;;;;;;;;;4959952;28;20213;-75
2022/01/29 06:50:51;;;;;;;3.10;1.10;;;;;;;;;;4961721;28;20224;-76
2022/01/29 06:53:18;;;;;;;2.17;1.20;;;;;;;;;;4959040;28;20235;-75
2022/01/29 06:55:45;;;;;;;2.73;1.20;;;;;;;;;;4963843;28;20297;-76
2022/01/29 06:58:12;;;;;;;2.43;1.10;;;;;;;;;;4961766;28;20206;-75
2022/01/29 07:00:39;;;;;;;1.83;1.20;;;;;;;;;;4961336;28;20208;-76
2022/01/29 07:03:08;;;;;;;1.67;0.90;;;;;;;;;;4964526;28;20234;-76
2022/01/29 07:05:35;;;;;;;2.50;1.17;;;;;;;;;;4959208;28;20208;-75
2022/01/29 07:08:04;;;;;;;2.90;1.33;;;;;;;;;;4957529;28;20675;-75
2022/01/29 07:10:31;;;;;;;2.10;1.10;;;;;;;;;;4963230;28;20228;-76
2022/01/29 07:12:58;;;;;;;2.40;1.13;;;;;;;;;;4960539;28;20944;-75
2022/01/29 07:15:25;;;;;;;2.00;1.00;;;;;;;;;;4956887;28;20230;-76
2022/01/29 07:17:53;;;;;;;2.40;1.17;;;;;;;;;;4957515;28;20228;-76
2022/01/29 07:20:21;;;;;;;2.43;1.30;;;;;;;;;;4958880;28;20293;-74
2022/01/29 07:22:48;;;;;;;2.93;1.60;;;;;;;;;;4961599;28;20300;-76
2022/01/29 07:25:16;;;;;;;1.67;0.93;;;;;;;;;;4960403;28;20215;-77
2022/01/29 07:27:43;;;;;;;1.60;0.93;;;;;;;;;;4960660;28;20297;-75
2022/01/29 07:30:11;;;;;;;2.57;1.20;;;;;;;;;;4961317;28;20210;-75
2022/01/29 07:32:43;;;;;;;1.73;1.00;;;;;;;;;;4960248;28;20237;-77
2022/01/29 07:35:10;;;;;;;2.27;1.30;;;;;;;;;;4961597;28;20292;-76
2022/01/29 07:37:39;;;;;;;2.43;0.90;;;;;;;;;;4964064;28;20212;-75
2022/01/29 07:40:06;;;;;;;2.03;1.00;;;;;;;;;;4963703;28;20756;-76
2022/01/29 07:42:34;;;;;;;1.33;0.80;;;;;;;;;;4965231;28;20202;-75
2022/01/29 07:45:01;;;;;;;2.27;1.20;;;;;;;;;;4965740;28;20333;-76
2022/01/29 07:47:28;;;;;;;2.77;1.10;;;;;;;;;;4964045;28;20607;-76
2022/01/29 07:49:55;;;;;;;2.63;0.70;;;;;;;;;;4963952;28;20220;-77
2022/01/29 07:52:22;;;;;;;2.60;0.87;;;;;;;;;;4964069;28;20214;-77
2022/01/29 07:54:51;;;;;;;2.03;1.00;;;;;;;;;;4966216;28;20228;-75
2022/01/29 07:57:18;;;;;;;3.00;1.40;;;;;;;;;;4967081;28;20202;-75
2022/01/29 07:59:45;;;;;;;1.97;0.60;;;;;;;;;;4964893;28;20205;-74
2022/01/29 08:02:12;;;;;;;1.63;0.90;;;;;;;;;;4963034;28;20201;-76
2022/01/29 08:04:39;;;;;;;1.47;0.83;;;;;;;;;;4965668;28;20241;-76
2022/01/29 08:07:07;;;;;;;2.00;0.87;;;;;;;;;;4959958;28;20202;-76
2022/01/29 08:09:34;;;;;;;1.53;0.90;;;;;;;;;;4963183;28;20790;-76
2022/01/29 08:12:02;;;;;;;1.87;0.90;;;;;;;;;;4961548;28;20210;-76
2022/01/29 08:14:29;;;;;;;1.37;0.83;;;;;;;;;;4962872;28;20335;-75
2022/01/29 08:16:56;;;;;;;1.70;1.00;;;;;;;;;;4963199;28;20289;-74
2022/01/29 08:19:24;;;;;;;1.80;0.87;;;;;;;;;;4961425;28;20208;-76
2022/01/29 08:21:51;;;;;;;1.83;0.90;;;;;;;;;;4964825;28;20210;-76
2022/01/29 08:24:18;;;;;;;1.57;0.93;;;;;;;;;;4964729;28;20341;-75
2022/01/29 08:26:45;;;;;;;1.47;0.90;;;;;;;;;;4963986;28;20662;-76
2022/01/29 08:29:14;;;;;;;1.37;0.87;;;;;;;;;;4963936;28;20285;-77
2022/01/29 08:31:41;;;;;;;1.97;0.97;;;;;;;;;;4961259;28;20735;-76
2022/01/29 08:34:08;;;;;;;1.47;1.07;;;;;;;;;;4963053;28;20229;-76
2022/01/29 08:36:35;;;;;;;2.73;1.67;;;;;;;;;;4964642;28;20649;-75
2022/01/29 08:39:02;;;;;;;2.57;1.40;;;;;;;;;;4963473;28;20237;-76
2022/01/29 08:41:30;;;;;;;3.47;2.10;;;;;;;;;;4960011;28;20321;-74
2022/01/29 08:43:57;;;;;;;3.37;1.93;;;;;;;;;;4961099;28;20680;-74
2022/01/29 08:46:25;;;;;;;3.57;2.33;;;;;;;;;;4958617;28;20599;-73
2022/01/29 08:48:52;;;;;;;5.07;2.60;;;;;;;;;;4957988;28;20206;-72
2022/01/29 08:51:20;;;;;;;5.07;2.73;;;;;;;;;;4956900;28;20580;-73
2022/01/29 08:53:47;;;;;;;3.77;1.80;;;;;;;;;;4956393;28;20336;-75
2022/01/29 08:56:15;;;;;;;1.97;1.40;;;;;;;;;;4959835;28;20208;-75
2022/01/29 08:58:43;;;;;;;3.37;1.87;;;;;;;;;;4957440;28;20225;-76
2022/01/29 09:01:10;;;;;;;3.20;2.00;;;;;;;;;;4959415;28;20304;-76
2022/01/29 09:03:39;;;;;;;6.93;3.50;;;;;;;;;;4958868;28;20872;-76
2022/01/29 09:06:06;;;;;;;5.50;3.13;;;;;;;;;;4965681;28;20208;-76
2022/01/29 09:08:34;;;;;;;4.47;2.47;;;;;;;;;;4961874;28;20576;-75
2022/01/29 09:11:01;;;;;;;3.20;2.20;;;;;;;;;;4959155;28;20209;-74
2022/01/29 09:13:29;;;;;;;4.03;2.10;;;;;;;;;;4958899;28;20237;-73
2022/01/29 09:15:56;;;;;;;2.93;1.90;;;;;;;;;;4962741;28;20211;-74
2022/01/29 09:18:24;;;;;;;3.50;2.17;;;;;;;;;;4962182;28;20335;-76
2022/01/29 09:20:53;;;;;;;3.87;1.73;;;;;;;;;;4961927;28;20672;-76
2022/01/29 09:23:21;;;;;;;4.30;2.30;;;;;;;;;;4963610;28;20226;-76
2022/01/29 09:25:48;;;;;;;7.57;3.43;;;;;;;;;;4961554;28;20325;-76
2022/01/29 09:28:16;;;;;;;5.63;2.40;;;;;;;;;;4960094;28;20208;-75
2022/01/29 09:30:44;;;;;;;2.60;1.80;;;;;;;;;;4956654;28;20233;-76
2022/01/29 09:33:12;;;;;;;5.57;2.60;;;;;;;;;;4961527;28;20237;-75
2022/01/29 09:35:39;;;;;;;4.53;2.13;;;;;;;;;;4958428;28;20297;-76
2022/01/29 09:38:08;;;;;;;3.43;1.90;;;;;;;;;;4963447;28;20197;-76
2022/01/29 09:40:35;;;;;;;2.80;1.87;;;;;;;;;;4957415;28;20209;-74
2022/01/29 09:43:05;;;;;;;3.07;1.50;;;;;;;;;;4956080;28;20233;-75
2022/01/29 09:45:33;;;;;;;3.03;1.93;;;;;;;;;;4963537;28;20482;-76
2022/01/29 09:48:02;;;;;;;2.83;1.93;;;;;;;;;;4956982;28;20520;-73
2022/01/29 09:50:30;;;;;;;3.50;1.90;;;;;;;;;;4953503;28;20312;-74
2022/01/29 09:52:57;;;;;;;3.17;1.87;;;;;;;;;;4954188;28;20465;-75
2022/01/29 09:55:26;;;;;;;2.53;1.57;;;;;;;;;;4959890;28;20345;-75
2022/01/29 09:57:53;;;;;;;5.10;1.93;;;;;;;;;;4954451;28;20217;-76
2022/01/29 10:00:21;;;;;;;2.20;1.40;;;;;;;;;;4957147;28;20210;-76
2022/01/29 10:03:03;;;;;;;1.70;1.30;;;;;;;;;;4954795;28;20585;-74
2022/01/29 10:05:38;;;;;;;2.37;1.80;;;;;;;;;;4956299;28;20208;-75
2022/01/29 10:08:06;;;;;;;2.60;1.53;;;;;;;;;;4959185;28;20205;-75
2022/01/29 10:10:39;;;;;;;3.13;1.80;;;;;;;;;;4958836;28;20203;-75
2022/01/29 10:13:21;;;;;;;2.93;1.57;;;;;;;;;;4959087;28;20241;-75
2022/01/29 10:15:48;;;;;;;3.33;2.10;;;;;;;;;;4963061;28;20560;-75
2022/01/29 10:18:21;;;;;;;3.40;2.03;;;;;;;;;;4961686;28;20309;-75
2022/01/29 10:20:48;;;;;;;4.77;1.73;;;;;;;;;;4958514;28;20245;-76
2022/01/29 10:23:15;;;;;;;2.57;1.60;;;;;;;;;;4957242;28;20563;-77
2022/01/29 10:25:44;;;;;;;3.00;1.93;;;;;;;;;;4960713;28;20674;-77
2022/01/29 10:28:14;;;;;;;3.37;2.07;;;;;;;;;;4965176;28;20276;-77
2022/01/29 10:31:01;;;;;;;4.73;1.90;;;;;;;;;;4961724;28;20291;-78
2022/01/29 10:33:29;;;;;;;3.17;1.80;;;;;;;;;;4966577;28;20234;-78
2022/01/29 10:35:57;;;;;;;4.03;1.90;;;;;;;;;;4960699;28;20298;-77
2022/01/29 10:38:25;;;;;;;2.50;1.70;;;;;;;;;;4959699;28;20522;-77
2022/01/29 10:41:19;;;;;;;2.87;1.50;;;;;;;;;;4961096;28;20212;-75
2022/01/29 10:44:00;;;;;;;5.43;1.60;;;;;;;;;;4962317;28;20619;-76
2022/01/29 10:49:32;;;;;;;3.87;1.90;;;;;;;;;;4957060;28;20188;-76
2022/01/29 10:52:02;;;;;;;4.20;2.00;;;;;;;;;;4956428;28;20218;-76
2022/01/29 10:54:30;;;;;;;2.57;1.50;;;;;;;;;;4959829;28;20229;-76
2022/01/29 10:57:00;;;;;;;3.80;1.80;;;;;;;;;;4958579;28;20209;-77
2022/01/29 10:59:28;;;;;;;3.20;1.43;;;;;;;;;;4958163;28;20865;-76
2022/01/29 11:01:56;;;;;;;2.57;1.50;;;;;;;;;;4959617;28;20216;-75
2022/01/29 11:04:25;;;;;;;2.30;1.47;;;;;;;;;;4962281;28;20232;-76
2022/01/29 11:06:53;;;;;;;4.03;1.53;;;;;;;;;;4956899;28;20600;-76
2022/01/29 11:09:22;;;;;;;4.17;1.60;;;;;;;;;;4959928;28;20205;-74
2022/01/29 11:11:49;;;;;;;2.60;1.50;;;;;;;;;;4959665;28;20194;-75
2022/01/29 11:14:18;;;;;;;2.87;1.50;;;;;;;;;;4967089;28;20244;-76
2022/01/29 11:16:46;;;;;;;7.00;1.53;;;;;;;;;;4958127;28;20229;-74
2022/01/29 11:19:13;;;;;;;2.97;1.40;;;;;;;;;;4949543;28;20213;-77
2022/01/29 11:21:42;;;;;;;2.40;1.40;;;;;;;;;;4957392;28;20213;-76
2022/01/29 11:24:11;;;;;;;3.03;1.30;;;;;;;;;;4952050;28;20262;-76
2022/01/29 11:26:39;;;;;;;2.30;1.40;;;;;;;;;;4949950;28;20226;-74
2022/01/29 11:29:40;;;;;;;2.50;1.37;;;;;;;;;;4952809;28;20425;-76
2022/01/29 11:32:26;;;;;;;1.90;1.20;;;;;;;;;;4966774;28;20205;-76
2022/01/29 11:35:06;;;;;;;2.13;1.30;;;;;;;;;;4964324;28;20284;-76
2022/01/29 11:37:44;;;;;;;3.33;1.30;;;;;;;;;;4965613;28;20227;-75
2022/01/29 11:40:17;;;;;;;2.83;1.60;;;;;;;;;;4960991;28;20316;-76
2022/01/29 11:42:59;;;;;;;3.43;1.63;;;;;;;;;;4960677;28;20629;-76
2022/01/29 11:45:38;;;;;;;1.83;0.97;;;;;;;;;;4962138;28;20614;-76
2022/01/29 11:48:05;;;;;;;2.93;1.40;;;;;;;;;;4961224;28;20202;-75
2022/01/29 11:50:47;;;;;;;1.97;1.00;;;;;;;;;;4963343;28;20652;-76
2022/01/29 11:53:15;;;;;;;2.03;1.10;;;;;;;;;;4961304;28;20240;-76
2022/01/29 11:55:44;;;;;;;1.60;1.07;;;;;;;;;;4964689;28;20233;-74
2022/01/29 11:58:21;;;;;;;3.97;1.37;;;;;;;;;;4965620;28;20235;-76
2022/01/29 12:00:51;;;;;;;1.67;1.13;;;;;;;;;;4961253;28;20205;-76
2022/01/29 12:03:38;;;;;;;2.47;1.20;;;;;;;;;;4965101;28;20217;-74
2022/01/29 12:06:17;;;;;;;2.10;1.10;;;;;;;;;;4963892;28;20568;-77
2022/01/29 12:09:00;;;;;;;1.93;1.10;;;;;;;;;;4961285;28;20216;-76
2022/01/29 12:11:27;;;;;;;2.20;1.23;;;;;;;;;;4947971;28;20205;-77
2022/01/29 12:14:09;;;;;;;2.27;1.40;;;;;;;;;;4958327;28;20245;-76
2022/01/29 12:16:49;;;;;;;2.23;1.20;;;;;;;;;;4965203;28;20308;-76
2022/01/29 12:19:31;;;;;;;2.87;1.20;;;;;;;;;;4963349;28;20215;-76
2022/01/29 12:22:00;;;;;;;2.67;1.60;;;;;;;;;;4960681;28;20202;-77
2022/01/29 12:24:27;;;;;;;1.23;0.93;;;;;;;;;;4968076;28;20317;-77
2022/01/29 12:26:55;;;;;;;1.50;1.03;;;;;;;;;;4965067;28;20210;-76
2022/01/29 12:29:23;;;;;;;1.20;0.90;;;;;;;;;;4965330;28;20216;-76
2022/01/29 12:31:50;;;;;;;1.00;0.80;;;;;;;;;;4961648;28;20206;-75
2022/01/29 12:34:18;;;;;;;2.90;1.50;;;;;;;;;;4964365;28;20226;-77
2022/01/29 12:36:45;;;;;;;2.43;1.20;;;;;;;;;;4964819;28;20295;-76
2022/01/29 12:39:21;;;;;;;1.87;1.20;;;;;;;;;;4963781;28;20228;-76
2022/01/29 12:42:01;;;;;;;1.30;0.87;;;;;;;;;;4961458;28;20213;-76
2022/01/29 12:44:28;;;;;;;2.13;1.20;;;;;;;;;;4965647;28;20257;-77
2022/01/29 12:46:56;;;;;;;2.33;1.30;;;;;;;;;;4962423;28;20462;-77
2022/01/29 12:49:23;;;;;;;1.37;1.00;;;;;;;;;;4966558;28;20661;-77
2022/01/29 12:51:52;;;;;;;1.50;0.90;;;;;;;;;;4962820;28;20598;-77
2022/01/29 12:54:20;;;;;;;2.80;1.20;;;;;;;;;;4961841;28;20309;-75
2022/01/29 12:56:49;;;;;;;2.27;1.20;;;;;;;;;;4960335;28;20224;-75
2022/01/29 12:59:17;;;;;;;2.23;1.03;;;;;;;;;;4962311;28;20675;-76
2022/01/29 13:01:45;;;;;;;0.73;0.53;;;;;;;;;;4964598;28;20674;-75
2022/01/29 13:04:13;;;;;;;1.20;0.90;;;;;;;;;;4960857;28;20226;-76
2022/01/29 13:06:40;;;;;;;2.27;0.73;;;;;;;;;;4963256;28;20237;-75
2022/01/29 13:09:14;;;;;;;2.00;0.80;;;;;;;;;;4966242;28;20202;-76
2022/01/29 13:11:43;;;;;;;1.60;0.80;;;;;;;;;;4965238;28;20202;-76
2022/01/29 13:14:16;;;;;;;1.43;0.80;;;;;;;;;;4963833;28;20250;-75
2022/01/29 13:16:44;;;;;;;1.20;0.70;;;;;;;;;;4961941;28;20209;-76
2022/01/29 13:19:14;;;;;;;1.13;0.73;;;;;;;;;;4963852;28;20216;-76
2022/01/29 13:21:41;;;;;;;1.00;0.57;;;;;;;;;;4961796;28;20273;-76
2022/01/29 13:24:27;;;;;;;2.03;0.70;;;;;;;;;;4962174;28;20308;-76
2022/01/29 13:27:03;;;;;;;0.90;0.60;;;;;;;;;;4964023;28;20233;-76
2022/01/29 13:29:33;;;;;;;0.80;0.50;;;;;;;;;;4965956;28;20217;-77
2022/01/29 13:32:01;;;;;;;0.80;0.60;;;;;;;;;;4960206;28;20210;-77
2022/01/29 13:34:29;;;;;;;1.17;0.60;;;;;;;;;;4958677;28;20643;-76
2022/01/29 13:36:56;;;;;;;1.23;0.70;;;;;;;;;;4960305;28;20904;-76
2022/01/29 13:39:25;;;;;;;1.47;0.70;;;;;;;;;;4963060;28;20206;-77
2022/01/29 13:42:14;;;;;;;1.53;0.77;;;;;;;;;;4965395;28;20316;-76
2022/01/29 13:45:01;;;;;;;2.03;0.80;;;;;;;;;;4962517;28;20229;-76
2022/01/29 13:47:28;;;;;;;1.47;0.63;;;;;;;;;;4959373;28;20212;-77
2022/01/29 13:49:56;;;;;;;0.70;0.60;;;;;;;;;;4960407;28;20214;-75
2022/01/29 13:52:25;;;;;;;1.40;0.87;;;;;;;;;;4961493;28;20253;-75
2022/01/29 13:54:52;;;;;;;1.57;0.97;;;;;;;;;;4963296;28;20324;-76
2022/01/29 13:57:22;;;;;;;2.03;0.90;;;;;;;;;;4967350;28;20687;-76
2022/01/29 14:00:00;;;;;;;1.70;0.97;;;;;;;;;;4961667;28;20788;-77
2022/01/29 14:02:28;;;;;;;1.97;0.70;;;;;;;;;;4961798;28;20220;-76
2022/01/29 14:05:03;;;;;;;1.20;0.70;;;;;;;;;;4963139;28;20230;-77
2022/01/29 14:07:36;;;;;;;1.20;0.70;;;;;;;;;;4963439;28;20229;-77
2022/01/29 14:10:11;;;;;;;1.03;0.70;;;;;;;;;;4961302;28;20669;-76
2022/01/29 14:12:48;;;;;;;1.40;0.83;;;;;;;;;;4964107;28;20284;-75
2022/01/29 14:15:17;;;;;;;4.67;1.73;;;;;;;;;;4961596;28;20222;-77
2022/01/29 14:17:44;;;;;;;4.17;1.80;;;;;;;;;;4962207;28;20202;-76
2022/01/29 14:20:14;;;;;;;1.90;0.90;;;;;;;;;;4959992;28;20214;-76
2022/01/29 14:22:42;;;;;;;2.00;1.00;;;;;;;;;;4959140;28;20650;-77
2022/01/29 14:25:10;;;;;;;12.37;4.17;;;;;;;;;;4959342;28;20214;-77
2022/01/29 14:27:38;;;;;;;2.40;1.50;;;;;;;;;;4959902;28;20241;-77
2022/01/29 14:30:07;;;;;;;1.70;1.20;;;;;;;;;;4964165;28;20293;-76
2022/01/29 14:32:35;;;;;;;1.80;1.43;;;;;;;;;;4961165;28;20312;-76
2022/01/29 14:35:04;;;;;;;2.93;1.10;;;;;;;;;;4964960;28;20236;-76
2022/01/29 14:37:31;;;;;;;8.43;4.37;;;;;;;;;;4962179;28;20296;-75
2022/01/29 14:39:58;;;;;;;5.10;2.70;;;;;;;;;;4965428;28;20217;-77
2022/01/29 14:42:28;;;;;;;3.30;2.23;;;;;;;;;;4961509;28;20236;-76
2022/01/29 14:44:55;;;;;;;2.80;2.20;;;;;;;;;;4961605;28;20233;-76
2022/01/29 14:47:24;;;;;;;2.90;2.20;;;;;;;;;;4963612;28;20209;-77
2022/01/29 14:49:51;;;;;;;5.10;3.03;;;;;;;;;;4959475;28;20289;-76
2022/01/29 14:52:18;;;;;;;2.93;1.40;;;;;;;;;;4961986;28;20224;-77
2022/01/29 14:54:45;;;;;;;6.07;3.23;;;;;;;;;;4962199;28;20610;-76
2022/01/29 14:57:13;;;;;;;2.97;1.67;;;;;;;;;;4962529;28;20225;-76
2022/01/29 14:59:41;;;;;;;6.03;3.87;;;;;;;;;;4958335;28;20785;-76
2022/01/29 15:02:08;;;;;;;2.73;1.87;;;;;;;;;;4958868;28;20218;-76
2022/01/29 15:04:37;;;;;;;8.53;6.00;;;;;;;;;;4961542;28;20240;-76
2022/01/29 15:07:04;;;;;;;9.63;6.20;;;;;;;;;;4965503;28;20687;-77
2022/01/29 15:09:32;;;;;;;6.20;3.33;;;;;;;;;;4960188;28;20209;-76
2022/01/29 15:11:59;;;;;;;5.17;2.83;;;;;;;;;;4960640;28;20220;-77
2022/01/29 15:14:26;;;;;;;7.33;4.00;;;;;;;;;;4963424;28;20594;-77
2022/01/29 15:16:53;;;;;;;1.90;1.53;;;;;;;;;;4962936;28;20317;-76
2022/01/29 15:19:21;;;;;;;3.27;1.77;;;;;;;;;;4960472;28;20206;-76
2022/01/29 15:21:49;;;;;;;4.07;2.87;;;;;;;;;;4961855;28;20206;-76
2022/01/29 15:24:17;;;;;;;2.83;1.50;;;;;;;;;;4963440;28;20221;-77
2022/01/29 15:26:44;;;;;;;2.80;2.07;;;;;;;;;;4963416;28;20261;-76
2022/01/29 15:29:11;;;;;;;4.37;2.23;;;;;;;;;;4957369;28;20205;-77
2022/01/29 15:31:40;;;;;;;2.23;1.40;;;;;;;;;;4957933;28;20292;-76
2022/01/29 15:34:08;;;;;;;2.63;1.30;;;;;;;;;;4960661;28;20868;-76
2022/01/29 15:36:35;;;;;;;1.67;1.33;;;;;;;;;;4959899;28;20324;-77
2022/01/29 15:39:04;;;;;;;1.77;1.27;;;;;;;;;;4960629;28;20219;-75
2022/01/29 15:41:31;;;;;;;1.80;1.30;;;;;;;;;;4962553;28;20292;-74
2022/01/29 15:43:59;;;;;;;3.80;2.37;;;;;;;;;;4960981;28;20233;-77
2022/01/29 15:46:26;;;;;;;4.53;2.20;;;;;;;;;;4960201;28;20700;-77
2022/01/29 15:48:54;;;;;;;2.93;1.83;;;;;;;;;;4960974;28;20579;-76
2022/01/29 15:51:21;;;;;;;4.77;1.40;;;;;;;;;;4959237;28;20207;-77
2022/01/29 15:53:48;;;;;;;2.53;1.73;;;;;;;;;;4961140;28;20249;-76